QFA627 LFPG-YPPH
Flight info
| Callsign | QFA627 |
|---|---|
| Flight time | N/A |
| Altitude | 41000 |
| Route | BUBLI DCT KICQA DCT LUPEN T107 LELTA Y161 MAH L173 EBEDA L603 UNKEN DCT ERANI DCT GOTAR DCT NALOX DCT PARAK DCT DIDIX DCT LAMIT DCT RONBU P975 ARTAT UP975 LESRI P975 ULDUR M688 SIDAD R784 IMDAT B416 DURSI R784 PEGET B416 EGMIT R784 LEVNA B416 ORSAR R784 TATLA L223 VUTEB M677 LOVEM L223 KIPOK L313 TARDI N629 GIDAN P570 KITAL L894 MERIB T12 KAGMI |
| Aircraft | B789/H-SDE1E2E3FGHIJ2J3J4J5M1RWXY/LB1D1 |
Departure
| Time | N/A |
|---|---|
| Airport | Charles de Gaulle International Airport (LFPG) |
Arrival
| Time | 2026-04-29 13:07 |
|---|---|
| Airport | Perth International Airport (YPPH) |
| Time | Latitude | Longitude | Altitude | Speed | Heading |
|---|---|---|---|---|---|
| 2026-04-29 12:10 | -28.57634 | 110.34717 | 41008 ft | 536 kts | 126° |
| 2026-04-29 12:10 | -28.62011 | 110.41585 | 41008 ft | 536 kts | 126° |
| 2026-04-29 12:11 | -28.66385 | 110.48459 | 41008 ft | 536 kts | 126° |
| 2026-04-29 12:11 | -28.70754 | 110.55336 | 41008 ft | 536 kts | 126° |
| 2026-04-29 12:12 | -28.75120 | 110.62219 | 41008 ft | 536 kts | 126° |
| 2026-04-29 12:12 | -28.79485 | 110.69113 | 41008 ft | 536 kts | 126° |
| 2026-04-29 12:13 | -28.83845 | 110.76010 | 41008 ft | 536 kts | 126° |
| 2026-04-29 12:13 | -28.88167 | 110.82858 | 41007 ft | 536 kts | 126° |
| 2026-04-29 12:14 | -28.92520 | 110.89767 | 41007 ft | 535 kts | 126° |
| 2026-04-29 12:14 | -28.96865 | 110.96673 | 41007 ft | 535 kts | 126° |
| 2026-04-29 12:15 | -29.01205 | 111.03584 | 41007 ft | 535 kts | 126° |
| 2026-04-29 12:15 | -29.05544 | 111.10504 | 41007 ft | 535 kts | 126° |
| 2026-04-29 12:16 | -29.09874 | 111.17422 | 41007 ft | 535 kts | 126° |
| 2026-04-29 12:16 | -29.14207 | 111.24356 | 41007 ft | 535 kts | 126° |
| 2026-04-29 12:17 | -29.18536 | 111.31295 | 41007 ft | 535 kts | 126° |
| 2026-04-29 12:17 | -29.22857 | 111.38233 | 41007 ft | 535 kts | 126° |
| 2026-04-29 12:18 | -29.27179 | 111.45184 | 41007 ft | 535 kts | 126° |
| 2026-04-29 12:18 | -29.31497 | 111.52140 | 41007 ft | 535 kts | 126° |
| 2026-04-29 12:19 | -29.35807 | 111.59095 | 41007 ft | 535 kts | 126° |
| 2026-04-29 12:19 | -29.40118 | 111.66063 | 41007 ft | 535 kts | 126° |
| 2026-04-29 12:20 | -29.44423 | 111.73034 | 41007 ft | 535 kts | 126° |
| 2026-04-29 12:20 | -29.48724 | 111.80009 | 41007 ft | 535 kts | 126° |
| 2026-04-29 12:21 | -29.53022 | 111.86992 | 41008 ft | 535 kts | 125° |
| 2026-04-29 12:21 | -29.57318 | 111.93984 | 41008 ft | 536 kts | 125° |
| 2026-04-29 12:22 | -29.61610 | 112.00979 | 41009 ft | 536 kts | 125° |
| 2026-04-29 12:22 | -29.65895 | 112.07978 | 41009 ft | 535 kts | 125° |
| 2026-04-29 12:23 | -29.70151 | 112.14939 | 41009 ft | 535 kts | 125° |
| 2026-04-29 12:23 | -29.74432 | 112.21953 | 41009 ft | 535 kts | 125° |
| 2026-04-29 12:24 | -29.78712 | 112.28979 | 41009 ft | 535 kts | 125° |
| 2026-04-29 12:24 | -29.82984 | 112.36002 | 41008 ft | 535 kts | 125° |
| 2026-04-29 12:25 | -29.87255 | 112.43037 | 41008 ft | 535 kts | 125° |
| 2026-04-29 12:26 | -29.93650 | 112.53592 | 41008 ft | 535 kts | 125° |
| 2026-04-29 12:26 | -29.97909 | 112.60638 | 41009 ft | 535 kts | 125° |
| 2026-04-29 12:27 | -30.02140 | 112.67648 | 41009 ft | 535 kts | 125° |
| 2026-04-29 12:27 | -30.07015 | 112.74062 | 41022 ft | 533 kts | 142° |
| 2026-04-29 12:27 | -30.10100 | 112.76427 | 41025 ft | 532 kts | 153° |
| 2026-04-29 12:28 | -30.13487 | 112.78146 | 41024 ft | 531 kts | 159° |
| 2026-04-29 12:28 | -30.20399 | 112.81197 | 41009 ft | 532 kts | 160° |
| 2026-04-29 12:29 | -30.27326 | 112.84226 | 41007 ft | 532 kts | 159° |
| 2026-04-29 12:29 | -30.34242 | 112.87283 | 41009 ft | 532 kts | 159° |
| 2026-04-29 12:30 | -30.41170 | 112.90329 | 41010 ft | 532 kts | 159° |
| 2026-04-29 12:30 | -30.48094 | 112.93393 | 41009 ft | 533 kts | 159° |
| 2026-04-29 12:31 | -30.55023 | 112.96453 | 41012 ft | 533 kts | 159° |
| 2026-04-29 12:31 | -30.61954 | 112.99526 | 41010 ft | 533 kts | 159° |
| 2026-04-29 12:32 | -30.68841 | 113.02579 | 41011 ft | 533 kts | 159° |
| 2026-04-29 12:32 | -30.75771 | 113.05659 | 41009 ft | 533 kts | 159° |
| 2026-04-29 12:33 | -30.82708 | 113.08746 | 41010 ft | 534 kts | 159° |
| 2026-04-29 12:33 | -30.89650 | 113.11840 | 41011 ft | 534 kts | 159° |
| 2026-04-29 12:34 | -30.96585 | 113.14936 | 41012 ft | 534 kts | 159° |
| 2026-04-29 12:34 | -31.03526 | 113.18039 | 41009 ft | 534 kts | 159° |
| 2026-04-29 12:35 | -31.10463 | 113.21145 | 41010 ft | 534 kts | 159° |
| 2026-04-29 12:35 | -31.17400 | 113.24256 | 41011 ft | 534 kts | 159° |
| 2026-04-29 12:36 | -31.24336 | 113.27372 | 41011 ft | 534 kts | 159° |
| 2026-04-29 12:36 | -31.31272 | 113.30492 | 41011 ft | 534 kts | 159° |
| 2026-04-29 12:37 | -31.38204 | 113.33638 | 41011 ft | 534 kts | 156° |
| 2026-04-29 12:37 | -31.41456 | 113.35730 | 41018 ft | 534 kts | 145° |
| 2026-04-29 12:37 | -31.44334 | 113.38488 | 41023 ft | 534 kts | 134° |
| 2026-04-29 12:38 | -31.48579 | 113.45562 | 41027 ft | 534 kts | 114° |
| 2026-04-29 12:38 | -31.49815 | 113.49656 | 41029 ft | 533 kts | 103° |
| 2026-04-29 12:38 | -31.50634 | 113.53882 | 40640 ft | 530 kts | 103° |
| 2026-04-29 12:38 | -31.51426 | 113.58134 | 39337 ft | 538 kts | 102° |
| 2026-04-29 12:39 | -31.52192 | 113.62436 | 38244 ft | 540 kts | 102° |
| 2026-04-29 12:39 | -31.52966 | 113.66739 | 37142 ft | 540 kts | 102° |
| 2026-04-29 12:39 | -31.53758 | 113.71027 | 36267 ft | 535 kts | 102° |
| 2026-04-29 12:39 | -31.54537 | 113.75274 | 35451 ft | 529 kts | 102° |
| 2026-04-29 12:40 | -31.55291 | 113.79462 | 34659 ft | 522 kts | 102° |
| 2026-04-29 12:40 | -31.56035 | 113.83601 | 33885 ft | 515 kts | 102° |
| 2026-04-29 12:40 | -31.56764 | 113.87626 | 33135 ft | 508 kts | 102° |
| 2026-04-29 12:40 | -31.57494 | 113.91657 | 32386 ft | 501 kts | 102° |
| 2026-04-29 12:41 | -31.58209 | 113.95634 | 31652 ft | 494 kts | 102° |
| 2026-04-29 12:41 | -31.58910 | 113.99554 | 30930 ft | 487 kts | 102° |
| 2026-04-29 12:41 | -31.59602 | 114.03417 | 30220 ft | 480 kts | 102° |
| 2026-04-29 12:41 | -31.60284 | 114.07222 | 29524 ft | 473 kts | 102° |
| 2026-04-29 12:42 | -31.60953 | 114.10969 | 28842 ft | 466 kts | 102° |
| 2026-04-29 12:42 | -31.61613 | 114.14674 | 28169 ft | 460 kts | 102° |
| 2026-04-29 12:42 | -31.62261 | 114.18317 | 27509 ft | 453 kts | 102° |
| 2026-04-29 12:42 | -31.62899 | 114.21909 | 26862 ft | 446 kts | 102° |
| 2026-04-29 12:43 | -31.63527 | 114.25447 | 26225 ft | 439 kts | 102° |
| 2026-04-29 12:43 | -31.64143 | 114.28931 | 25600 ft | 433 kts | 102° |
| 2026-04-29 12:43 | -31.64750 | 114.32365 | 24986 ft | 426 kts | 102° |
| 2026-04-29 12:43 | -31.65347 | 114.35748 | 24382 ft | 420 kts | 102° |
| 2026-04-29 12:44 | -31.65934 | 114.39079 | 23790 ft | 414 kts | 102° |
| 2026-04-29 12:44 | -31.66512 | 114.42367 | 23207 ft | 408 kts | 102° |
| 2026-04-29 12:44 | -31.67081 | 114.45605 | 22634 ft | 402 kts | 102° |
| 2026-04-29 12:44 | -31.67642 | 114.48804 | 22069 ft | 397 kts | 102° |
| 2026-04-29 12:45 | -31.68194 | 114.51960 | 21513 ft | 393 kts | 102° |
| 2026-04-29 12:45 | -31.68743 | 114.55099 | 20963 ft | 392 kts | 102° |
| 2026-04-29 12:45 | -31.69288 | 114.58226 | 20413 ft | 389 kts | 102° |
| 2026-04-29 12:45 | -31.69645 | 114.60273 | 20054 ft | 384 kts | 102° |
| 2026-04-29 12:46 | -31.70175 | 114.63318 | 19519 ft | 378 kts | 102° |
| 2026-04-29 12:46 | -31.70700 | 114.66333 | 18994 ft | 376 kts | 102° |
| 2026-04-29 12:46 | -31.71222 | 114.69341 | 18470 ft | 375 kts | 102° |
| 2026-04-29 12:46 | -31.71906 | 114.73287 | 17780 ft | 367 kts | 102° |
| 2026-04-29 12:47 | -31.72411 | 114.76207 | 17233 ft | 364 kts | 102° |
| 2026-04-29 12:47 | -31.72750 | 114.78171 | 16888 ft | 363 kts | 102° |
| 2026-04-29 12:47 | -31.73251 | 114.81075 | 16383 ft | 361 kts | 102° |
| 2026-04-29 12:47 | -31.73748 | 114.83957 | 15881 ft | 356 kts | 102° |
| 2026-04-29 12:48 | -31.74227 | 114.86743 | 15396 ft | 351 kts | 102° |
| 2026-04-29 12:48 | -31.74711 | 114.89554 | 14911 ft | 351 kts | 102° |
| 2026-04-29 12:48 | -31.75193 | 114.92363 | 14425 ft | 350 kts | 102° |
| 2026-04-29 12:48 | -31.75668 | 114.95137 | 13941 ft | 342 kts | 102° |
| 2026-04-29 12:49 | -31.76135 | 114.97866 | 13469 ft | 340 kts | 102° |
| 2026-04-29 12:49 | -31.76602 | 115.00596 | 12997 ft | 340 kts | 102° |
| 2026-04-29 12:49 | -31.77066 | 115.03317 | 12525 ft | 337 kts | 102° |
| 2026-04-29 12:49 | -31.77521 | 115.05986 | 12059 ft | 330 kts | 102° |
| 2026-04-29 12:50 | -31.77972 | 115.08633 | 11602 ft | 331 kts | 102° |
| 2026-04-29 12:50 | -31.78423 | 115.11287 | 11142 ft | 330 kts | 102° |
| 2026-04-29 12:50 | -31.78870 | 115.13920 | 10722 ft | 324 kts | 102° |
| 2026-04-29 12:50 | -31.79309 | 115.16507 | 10380 ft | 320 kts | 102° |
| 2026-04-29 12:51 | -31.79733 | 115.19017 | 10035 ft | 307 kts | 102° |
| 2026-04-29 12:51 | -31.80141 | 115.21426 | 9701 ft | 293 kts | 102° |
| 2026-04-29 12:51 | -31.80533 | 115.23749 | 9387 ft | 287 kts | 102° |
| 2026-04-29 12:51 | -31.80920 | 115.26039 | 9080 ft | 284 kts | 102° |
| 2026-04-29 12:52 | -31.81396 | 115.28275 | 8781 ft | 281 kts | 109° |
| 2026-04-29 12:52 | -31.81923 | 115.30458 | 8482 ft | 280 kts | 104° |
| 2026-04-29 12:52 | -31.82392 | 115.32680 | 8182 ft | 279 kts | 105° |
| 2026-04-29 12:52 | -31.82894 | 115.34875 | 7882 ft | 278 kts | 106° |
| 2026-04-29 12:53 | -31.83415 | 115.37055 | 7584 ft | 276 kts | 106° |
| 2026-04-29 12:53 | -31.83926 | 115.39225 | 7287 ft | 275 kts | 105° |
| 2026-04-29 12:53 | -31.84416 | 115.41341 | 6997 ft | 274 kts | 105° |
| 2026-04-29 12:53 | -31.84915 | 115.43496 | 6701 ft | 272 kts | 105° |
| 2026-04-29 12:54 | -31.85413 | 115.45635 | 6408 ft | 271 kts | 105° |
| 2026-04-29 12:54 | -31.85909 | 115.47766 | 6116 ft | 269 kts | 105° |
| 2026-04-29 12:54 | -31.86399 | 115.49878 | 5955 ft | 264 kts | 105° |
| 2026-04-29 12:54 | -31.86885 | 115.51982 | 5957 ft | 268 kts | 105° |
| 2026-04-29 12:55 | -31.87029 | 115.54151 | 5958 ft | 267 kts | 85° |
| 2026-04-29 12:55 | -31.86909 | 115.56345 | 5968 ft | 270 kts | 88° |
| 2026-04-29 12:55 | -31.86754 | 115.58541 | 5953 ft | 270 kts | 77° |
| 2026-04-29 12:55 | -31.86151 | 115.60632 | 5955 ft | 270 kts | 65° |
| 2026-04-29 12:56 | -31.85253 | 115.62571 | 5962 ft | 270 kts | 59° |
| 2026-04-29 12:56 | -31.84280 | 115.64464 | 5968 ft | 271 kts | 58° |
| 2026-04-29 12:56 | -31.83303 | 115.66327 | 5968 ft | 270 kts | 58° |
| 2026-04-29 12:56 | -31.82313 | 115.68210 | 5966 ft | 270 kts | 58° |
| 2026-04-29 12:57 | -31.81325 | 115.70090 | 5964 ft | 270 kts | 58° |
| 2026-04-29 12:57 | -31.80340 | 115.71964 | 5965 ft | 269 kts | 58° |
| 2026-04-29 12:57 | -31.79355 | 115.73836 | 5966 ft | 270 kts | 58° |
| 2026-04-29 12:57 | -31.78368 | 115.75714 | 5965 ft | 269 kts | 58° |
| 2026-04-29 12:58 | -31.77397 | 115.77560 | 5444 ft | 268 kts | 58° |
| 2026-04-29 12:58 | -31.76434 | 115.79390 | 5138 ft | 258 kts | 58° |
| 2026-04-29 12:58 | -31.75508 | 115.81150 | 4891 ft | 248 kts | 58° |
| 2026-04-29 12:58 | -31.74610 | 115.82858 | 4665 ft | 244 kts | 58° |
| 2026-04-29 12:59 | -31.73723 | 115.84548 | 4432 ft | 242 kts | 59° |
| 2026-04-29 12:59 | -31.73186 | 115.86398 | 4122 ft | 240 kts | 83° |
| 2026-04-29 12:59 | -31.73064 | 115.88351 | 3868 ft | 239 kts | 88° |
| 2026-04-29 12:59 | -31.72997 | 115.90300 | 3648 ft | 237 kts | 88° |
| 2026-04-29 13:00 | -31.72941 | 115.92219 | 3683 ft | 234 kts | 88° |
| 2026-04-29 13:00 | -31.72886 | 115.94135 | 3686 ft | 237 kts | 88° |
| 2026-04-29 13:00 | -31.72831 | 115.96067 | 3679 ft | 237 kts | 88° |
| 2026-04-29 13:00 | -31.72776 | 115.97951 | 3669 ft | 222 kts | 88° |
| 2026-04-29 13:01 | -31.72725 | 115.99748 | 3666 ft | 219 kts | 88° |
| 2026-04-29 13:01 | -31.72676 | 116.01526 | 3668 ft | 217 kts | 89° |
| 2026-04-29 13:01 | -31.73087 | 116.03185 | 3623 ft | 211 kts | 128° |
| 2026-04-29 13:01 | -31.74204 | 116.04148 | 3653 ft | 197 kts | 150° |
| 2026-04-29 13:02 | -31.75396 | 116.04932 | 3635 ft | 194 kts | 157° |
| 2026-04-29 13:02 | -31.76689 | 116.04884 | 3610 ft | 190 kts | 204° |
| 2026-04-29 13:02 | -31.77790 | 116.04030 | 3479 ft | 195 kts | 216° |
| 2026-04-29 13:02 | -31.78868 | 116.03095 | 3144 ft | 191 kts | 217° |
| 2026-04-29 13:03 | -31.79923 | 116.02178 | 2776 ft | 182 kts | 217° |
| 2026-04-29 13:03 | -31.80871 | 116.01355 | 2577 ft | 161 kts | 217° |
| 2026-04-29 13:03 | -31.81735 | 116.00605 | 2291 ft | 147 kts | 217° |
| 2026-04-29 13:03 | -31.82557 | 115.99959 | 2095 ft | 141 kts | 211° |
| 2026-04-29 13:04 | -31.83504 | 115.99642 | 1921 ft | 142 kts | 193° |
| 2026-04-29 13:04 | -31.84461 | 115.99314 | 1738 ft | 143 kts | 195° |
| 2026-04-29 13:04 | -31.85424 | 115.99016 | 1554 ft | 143 kts | 195° |
| 2026-04-29 13:04 | -31.86389 | 115.98730 | 1364 ft | 143 kts | 194° |
| 2026-04-29 13:05 | -31.87351 | 115.98450 | 1175 ft | 142 kts | 194° |
| 2026-04-29 13:05 | -31.88308 | 115.98170 | 987 ft | 141 kts | 194° |
| 2026-04-29 13:05 | -31.89268 | 115.97888 | 786 ft | 142 kts | 194° |
| 2026-04-29 13:05 | -31.90210 | 115.97616 | 603 ft | 139 kts | 194° |
| 2026-04-29 13:06 | -31.91159 | 115.97355 | 426 ft | 140 kts | 194° |
| 2026-04-29 13:06 | -31.92095 | 115.97072 | 240 ft | 138 kts | 195° |
| 2026-04-29 13:06 | -31.93016 | 115.96804 | 85 ft | 133 kts | 194° |
| 2026-04-29 13:06 | -31.93791 | 115.96577 | 65 ft | 98 kts | 194° |
| 2026-04-29 13:07 | -31.94365 | 115.96401 | 67 ft | 75 kts | 193° |
| 2026-04-29 13:07 | -31.94792 | 115.96282 | 67 ft | 54 kts | 193° |
| 2026-04-29 13:07 | -31.95083 | 115.96200 | 72 ft | 26 kts | 194° |
| 2026-04-29 13:07 | -31.95216 | 115.96160 | 74 ft | 20 kts | 195° |
| 2026-04-29 13:08 | -31.95365 | 115.96115 | 75 ft | 23 kts | 193° |
| 2026-04-29 13:08 | -31.95540 | 115.96065 | 78 ft | 29 kts | 194° |
| 2026-04-29 13:08 | -31.95735 | 115.96008 | 78 ft | 29 kts | 194° |
| 2026-04-29 13:08 | -31.95862 | 115.96033 | 80 ft | 13 kts | 134° |
| 2026-04-29 13:09 | -31.95897 | 115.96132 | 82 ft | 14 kts | 106° |
| 2026-04-29 13:09 | -31.95918 | 115.96255 | 80 ft | 16 kts | 85° |
| 2026-04-29 13:09 | -31.95840 | 115.96330 | 80 ft | 16 kts | 13° |
| 2026-04-29 13:09 | -31.95713 | 115.96365 | 81 ft | 22 kts | 13° |
| 2026-04-29 13:10 | -31.95547 | 115.96414 | 78 ft | 26 kts | 14° |
| 2026-04-29 13:10 | -31.95364 | 115.96468 | 76 ft | 28 kts | 14° |
| 2026-04-29 13:10 | -31.95164 | 115.96525 | 71 ft | 31 kts | 13° |
| 2026-04-29 13:10 | -31.94952 | 115.96586 | 71 ft | 32 kts | 14° |
| 2026-04-29 13:11 | -31.94738 | 115.96650 | 72 ft | 32 kts | 14° |
| 2026-04-29 13:11 | -31.94522 | 115.96714 | 72 ft | 32 kts | 14° |
| 2026-04-29 13:11 | -31.94322 | 115.96771 | 72 ft | 26 kts | 13° |
| 2026-04-29 13:11 | -31.94201 | 115.96830 | 72 ft | 11 kts | 60° |
| 2026-04-29 13:12 | -31.94201 | 115.96917 | 72 ft | 11 kts | 100° |
| 2026-04-29 13:12 | -31.94206 | 115.96965 | 72 ft | 1 kts | 85° |
| 2026-04-29 13:12 | -31.94189 | 115.96996 | 72 ft | 6 kts | 41° |
| 2026-04-29 13:12 | -31.94160 | 115.97007 | 72 ft | 0 kts | 17° |